Time;durP1;ratioP1;P1;durP2;ratioP2;P2;SDS_P1;SDS_P2;PMS_P1;PMS_P2;Temp;Humidity;BMP_temperature;BMP_pressure;BME280_temperature;BME280_humidity;BME280_pressure;Samples;Min_cycle;Max_cycle;Signal;HPM_P1;HPM_P2
2023/04/24 07:14:36;;;;;;;;;3.00;1.75;;;;;17.97;50.56;100819.78;5097316;27;46044;-77
2023/04/24 07:17:03;;;;;;;;;1.00;1.00;;;;;18.52;51.41;100822.31;5085140;27;45801;-78
2023/04/24 07:19:28;;;;;;;;;3.00;2.00;;;;;19.30;51.91;100829.00;5085595;27;45539;-77
2023/04/24 07:21:54;;;;;;;;;2.00;2.00;;;;;20.17;51.91;100831.09;5086912;27;45435;-78
2023/04/24 07:24:20;;;;;;;;;1.00;1.00;;;;;21.04;51.43;100833.69;5087535;27;47400;-78
2023/04/24 07:26:46;;;;;;;;;2.67;2.33;;;;;21.84;50.81;100826.75;5088161;27;45464;-78
2023/04/24 07:29:13;;;;;;;;;1.33;1.33;;;;;22.56;49.90;100829.53;5088718;27;45578;-76
2023/04/24 07:31:38;;;;;;;;;1.33;1.33;;;;;23.16;49.34;100827.78;5086857;27;45520;-79
2023/04/24 07:34:04;;;;;;;;;1.00;1.00;;;;;23.67;48.99;100833.16;5098130;27;45971;-82
2023/04/24 07:36:29;;;;;;;;;2.00;2.00;;;;;24.13;48.38;100839.16;5085963;27;45633;-78
2023/04/24 07:38:56;;;;;;;;;1.67;1.67;;;;;24.53;47.68;100847.41;5087728;27;45837;-88
2023/04/24 07:41:21;;;;;;;;;0.00;0.00;;;;;24.88;47.66;100845.31;5088531;27;45363;-75
2023/04/24 07:43:47;;;;;;;;;3.00;3.00;;;;;25.17;46.74;100848.44;5086270;27;46072;-77
2023/04/24 07:46:12;;;;;;;;;2.00;2.00;;;;;25.39;46.16;100853.03;5085993;27;45443;-78
2023/04/24 07:48:37;;;;;;;;;3.33;3.00;;;;;25.58;46.18;100847.38;5087829;27;45757;-78
2023/04/24 07:51:03;;;;;;;;;2.00;2.00;;;;;25.75;45.37;100853.53;5091129;27;45393;-77
2023/04/24 07:53:28;;;;;;;;;2.33;2.33;;;;;25.88;45.39;100853.75;5088245;27;45484;-78
2023/04/24 07:55:55;;;;;;;;;3.33;2.00;;;;;26.01;45.07;100849.59;5087747;27;45406;-76
2023/04/24 07:58:21;;;;;;;;;3.67;2.00;;;;;26.15;45.09;100839.78;5088243;27;45389;-77
2023/04/24 08:00:46;;;;;;;;;2.00;2.00;;;;;26.29;44.64;100843.59;5087910;27;45544;-78
2023/04/24 08:03:12;;;;;;;;;4.33;3.00;;;;;26.40;44.82;100853.19;5079947;27;46224;-80
2023/04/24 08:05:38;;;;;;;;;2.33;2.00;;;;;26.50;44.18;100855.63;5088158;27;45451;-76
2023/04/24 08:08:03;;;;;;;;;2.00;1.00;;;;;26.57;44.53;100862.03;5088667;27;45462;-83
2023/04/24 08:10:28;;;;;;;;;2.00;2.00;;;;;26.63;44.42;100860.44;5086759;27;45527;-78
2023/04/24 08:12:55;;;;;;;;;2.67;2.67;;;;;26.70;43.91;100856.75;5083116;27;45712;-77
2023/04/24 08:15:20;;;;;;;;;2.33;2.33;;;;;26.77;43.46;100856.88;5084834;27;45633;-76
2023/04/24 08:17:46;;;;;;;;;2.00;2.00;;;;;26.82;43.63;100869.94;5082744;27;46616;-74
2023/04/24 08:20:13;;;;;;;;;2.00;2.00;;;;;26.83;42.78;100864.31;5085343;27;45531;-75
2023/04/24 08:22:43;;;;;;;;;1.67;1.67;;;;;26.85;42.30;100872.25;5085219;27;45718;-74
2023/04/24 08:25:09;;;;;;;;;4.00;1.67;;;;;26.84;42.39;100865.97;5078013;27;45661;-77
2023/04/24 08:27:36;;;;;;;;;1.00;1.00;;;;;26.85;42.18;100866.81;5067040;27;45483;-75
2023/04/24 08:30:02;;;;;;;;;2.00;2.00;;;;;26.84;42.11;100862.41;5069902;28;45480;-77
2023/04/24 08:32:28;;;;;;;;;3.00;2.67;;;;;26.85;41.93;100864.09;5066302;27;45712;-74
2023/04/24 08:34:56;;;;;;;;;3.67;2.33;;;;;26.86;42.28;100875.84;5092487;27;45579;-73
2023/04/24 08:37:21;;;;;;;;;3.00;3.00;;;;;26.87;41.81;100870.22;5068648;28;45550;-72
2023/04/24 08:39:47;;;;;;;;;3.00;3.00;;;;;26.84;41.39;100867.84;5070047;27;45364;-74
2023/04/24 08:42:14;;;;;;;;;4.67;4.00;;;;;26.88;41.71;100879.22;5055801;28;46176;-74
2023/04/24 08:44:40;;;;;;;;;7.00;5.00;;;;;26.89;41.54;100876.31;5047865;27;45728;-74
2023/04/24 08:47:07;;;;;;;;;5.67;5.00;;;;;26.91;41.40;100878.84;5057379;27;45621;-75
2023/04/24 08:49:33;;;;;;;;;6.33;4.67;;;;;26.91;40.59;100876.97;5053075;27;46862;-74
2023/04/24 08:51:59;;;;;;;;;5.00;5.00;;;;;26.91;41.03;100876.97;5049010;27;46685;-75
2023/04/24 08:54:25;;;;;;;;;3.00;3.00;;;;;26.92;40.28;100880.53;5049681;28;45685;-74
2023/04/24 08:56:53;;;;;;;;;5.33;5.00;;;;;26.93;40.64;100876.78;5049343;27;45789;-74
2023/04/24 08:59:21;;;;;;;;;4.67;4.67;;;;;26.94;40.34;100881.22;5062352;28;45845;-74
2023/04/24 09:01:49;;;;;;;;;4.67;3.33;;;;;26.92;40.03;100880.53;5087685;27;48069;-74
2023/04/24 09:04:17;;;;;;;;;4.33;3.00;;;;;26.96;40.38;100879.16;5070338;27;45674;-75
2023/04/24 09:06:44;;;;;;;;;4.00;2.33;;;;;26.91;39.60;100871.53;5071978;27;45903;-75
2023/04/24 09:09:11;;;;;;;;;3.67;3.67;;;;;26.90;39.21;100875.28;5068417;27;45628;-74
2023/04/24 09:11:37;;;;;;;;;3.67;3.33;;;;;26.90;39.11;100875.28;5071895;27;45481;-74
2023/04/24 09:14:03;;;;;;;;;3.00;3.00;;;;;26.88;39.65;100869.16;5064593;28;45447;-74
2023/04/24 09:16:29;;;;;;;;;4.00;3.00;;;;;26.88;39.65;100879.22;5072473;28;45345;-74
2023/04/24 09:18:55;;;;;;;;;4.00;3.67;;;;;26.88;38.78;100882.78;5072713;27;45462;-75
2023/04/24 09:21:23;;;;;;;;;3.00;3.00;;;;;26.87;38.60;100877.53;5070031;28;46608;-74
2023/04/24 09:23:59;;;;;;;;;3.33;3.00;;;;;26.89;39.32;100884.47;5072696;27;46474;-75
2023/04/24 09:26:25;;;;;;;;;6.00;3.00;;;;;26.84;39.00;100884.19;5071910;27;45414;-74
2023/04/24 09:28:50;;;;;;;;;1.33;1.33;;;;;26.89;38.88;100895.38;5071553;27;45876;-74
2023/04/24 09:31:18;;;;;;;;;2.00;2.00;;;;;26.92;38.91;100891.41;5071271;27;45691;-75
2023/04/24 09:34:05;;;;;;;;;3.00;3.00;;;;;26.94;38.74;100889.41;5080834;27;45501;-74
2023/04/24 09:36:42;;;;;;;;;2.67;2.67;;;;;26.94;38.53;100890.22;5068319;28;45347;-75
2023/04/24 09:39:15;;;;;;;;;2.00;2.00;;;;;26.95;38.39;100888.34;5071047;28;45438;-74
2023/04/24 09:41:48;;;;;;;;;4.00;3.67;;;;;26.95;38.37;100886.50;5085216;27;46976;-74
2023/04/24 09:44:17;;;;;;;;;4.33;4.33;;;;;26.94;38.32;100887.50;5070709;28;45617;-74
2023/04/24 09:46:45;;;;;;;;;3.00;2.67;;;;;27.01;38.32;100897.66;5070922;28;45359;-74
2023/04/24 09:49:16;;;;;;;;;3.67;3.00;;;;;26.93;37.80;100888.53;5052426;27;45683;-75
2023/04/24 09:51:42;;;;;;;;;3.00;3.00;;;;;27.00;37.84;100901.41;5051277;27;46161;-75
2023/04/24 09:54:15;;;;;;;;;3.00;3.00;;;;;26.90;37.59;100886.19;5061429;27;45699;-75
2023/04/24 09:56:44;;;;;;;;;2.33;2.33;;;;;27.01;38.37;100905.84;5047647;27;45642;-74
2023/04/24 09:59:09;;;;;;;;;2.00;2.00;;;;;26.89;38.09;100886.38;5047542;27;46359;-75
2023/04/24 10:01:35;;;;;;;;;3.67;3.67;;;;;26.93;38.08;100896.72;5047467;27;46924;-75
2023/04/24 10:04:01;;;;;;;;;2.67;2.67;;;;;27.06;38.04;100906.94;5055790;28;46633;-74
2023/04/24 10:06:36;;;;;;;;;4.00;4.00;;;;;27.00;37.42;100896.81;5058489;28;46392;-75
2023/04/24 10:09:03;;;;;;;;;2.00;2.00;;;;;27.01;37.28;100895.75;5056551;28;45518;-74
2023/04/24 10:11:29;;;;;;;;;4.00;4.00;;;;;27.10;37.27;100913.72;5046209;27;47028;-74
2023/04/24 10:13:55;;;;;;;;;3.67;2.67;;;;;27.01;37.65;100892.22;5047869;28;45647;-74
2023/04/24 10:16:22;;;;;;;;;3.67;2.33;;;;;27.03;37.40;100896.44;5046231;28;46943;-74
2023/04/24 10:18:48;;;;;;;;;2.33;2.33;;;;;27.07;37.38;100910.53;5049297;28;46259;-74
2023/04/24 10:21:17;;;;;;;;;3.00;3.00;;;;;27.01;37.04;100898.50;5061590;27;46378;-74
2023/04/24 10:23:43;;;;;;;;;2.00;2.00;;;;;27.02;36.78;100905.63;5049342;28;45589;-74
2023/04/24 10:26:09;;;;;;;;;1.67;1.67;;;;;27.01;36.67;100905.84;5044390;27;45971;-74
2023/04/24 10:28:36;;;;;;;;;2.67;2.67;;;;;27.01;37.19;100903.94;5079809;27;45792;-74
2023/04/24 10:31:02;;;;;;;;;3.00;3.00;;;;;27.10;36.57;100919.16;5060855;27;46555;-74
2023/04/24 10:33:30;;;;;;;;;4.00;3.00;;;;;27.08;37.27;100912.22;5071448;27;45461;-74
2023/04/24 10:35:58;;;;;;;;;4.00;2.67;;;;;27.09;37.23;100913.88;5072109;27;45550;-74
2023/04/24 10:38:26;;;;;;;;;2.67;2.67;;;;;27.06;36.71;100914.28;5069807;28;45668;-74
2023/04/24 10:41:06;;;;;;;;;2.67;2.00;;;;;27.06;36.40;100911.56;5068222;28;46613;-74
2023/04/24 10:43:33;;;;;;;;;2.00;2.00;;;;;27.02;36.51;100905.63;5070931;27;45511;-74
2023/04/24 10:46:04;;;;;;;;;4.33;2.33;;;;;27.05;37.02;100913.44;5069487;28;45508;-74
2023/04/24 10:48:30;;;;;;;;;3.00;2.33;;;;;27.05;36.92;100913.44;5072018;27;45511;-74
2023/04/24 10:50:55;;;;;;;;;4.00;3.00;;;;;27.02;36.27;100897.44;5071133;27;45772;-74
2023/04/24 10:53:27;;;;;;;;;2.00;2.00;;;;;27.13;36.23;100919.81;5053021;28;46144;-74
2023/04/24 10:56:04;;;;;;;;;3.00;3.00;;;;;27.13;36.56;100914.38;5046727;28;45957;-74
2023/04/24 10:59:07;;;;;;;;;1.00;1.00;;;;;27.13;36.62;100914.38;5047245;27;45636;-74
2023/04/24 11:01:32;;;;;;;;;3.00;3.00;;;;;27.05;36.73;100896.25;5014733;28;46450;-74
2023/04/24 11:04:02;;;;;;;;;3.00;3.00;;;;;27.08;36.46;100899.44;5023500;28;46450;-74
2023/04/24 11:06:35;;;;;;;;;4.00;2.00;;;;;27.16;36.55;100903.94;5014993;28;45539;-74
2023/04/24 11:09:06;;;;;;;;;2.00;2.00;;;;;27.15;35.92;100910.44;4990800;28;46977;-74
2023/04/24 11:11:32;;;;;;;;;2.00;2.00;;;;;27.08;36.31;100896.72;5005483;28;45634;-75
2023/04/24 11:13:57;;;;;;;;;3.00;3.00;;;;;27.18;35.86;100907.31;5005315;28;45566;-74
2023/04/24 11:16:41;;;;;;;;;2.00;2.00;;;;;27.18;35.75;100907.31;5006593;28;46871;-75
2023/04/24 11:19:19;;;;;;;;;2.33;2.33;;;;;27.20;36.22;100907.13;5011686;28;46757;-75
2023/04/24 11:21:53;;;;;;;;;1.33;1.33;;;;;27.15;35.66;100896.81;5010487;28;46921;-75
2023/04/24 11:24:27;;;;;;;;;2.00;2.00;;;;;27.23;36.33;100912.22;4990052;28;46769;-75
2023/04/24 11:26:57;;;;;;;;;3.00;3.00;;;;;27.13;36.29;100893.41;5005464;28;45834;-75
2023/04/24 11:29:38;;;;;;;;;2.33;2.33;;;;;27.23;35.82;100910.31;5012780;28;45713;-75
2023/04/24 11:32:33;;;;;;;;;1.00;1.00;;;;;27.23;36.04;100917.66;5027403;28;45809;-74
2023/04/24 11:35:01;;;;;;;;;3.33;2.00;;;;;27.16;35.51;100901.22;4995371;28;45501;-74
2023/04/24 11:37:29;;;;;;;;;2.00;2.00;;;;;27.16;35.28;100903.09;5020752;28;45582;-74
2023/04/24 11:39:57;;;;;;;;;3.00;3.00;;;;;27.21;35.32;100906.09;5012843;28;45584;-74
2023/04/24 11:42:23;;;;;;;;;2.33;2.33;;;;;27.13;35.96;100889.84;5011743;28;46703;-73
2023/04/24 11:44:51;;;;;;;;;2.67;2.67;;;;;27.18;35.67;100904.59;5009436;28;45687;-79
2023/04/24 11:47:16;;;;;;;;;2.00;2.00;;;;;27.19;35.17;100913.63;5009074;28;45558;-79
2023/04/24 11:49:42;;;;;;;;;3.33;3.33;;;;;27.21;35.74;100911.53;5013225;28;45744;-79
2023/04/24 11:52:07;;;;;;;;;3.00;3.00;;;;;27.26;35.67;100917.25;5007387;28;46616;-79
2023/04/24 11:54:33;;;;;;;;;3.67;3.67;;;;;27.29;35.77;100906.00;5009354;28;45915;-79
2023/04/24 11:56:58;;;;;;;;;3.33;3.33;;;;;27.38;35.28;100908.63;5008098;28;45637;-83
2023/04/24 11:59:24;;;;;;;;;3.33;3.33;;;;;27.41;35.71;100905.50;5004566;28;46002;-82
2023/04/24 12:01:50;;;;;;;;;3.00;2.00;;;;;27.47;35.67;100902.03;5007575;28;45615;-78
2023/04/24 12:04:17;;;;;;;;;2.33;2.33;;;;;27.54;35.85;100897.47;5007417;28;45587;-79
2023/04/24 12:06:59;;;;;;;;;1.00;1.00;;;;;27.59;35.68;100899.63;5008578;28;45644;-76
2023/04/24 12:09:25;;;;;;;;;2.67;2.67;;;;;27.61;34.85;100901.16;5009004;28;46681;-76
2023/04/24 12:11:56;;;;;;;;;3.00;3.00;;;;;27.60;34.83;100891.31;5039921;28;46877;-76
2023/04/24 12:14:22;;;;;;;;;2.00;2.00;;;;;27.65;35.12;100898.88;5052189;28;46386;-76
2023/04/24 12:16:51;;;;;;;;;3.00;3.00;;;;;27.65;35.18;100904.34;5053232;27;45701;-77
2023/04/24 12:19:23;;;;;;;;;2.00;2.00;;;;;27.68;35.52;100900.38;5058875;27;45544;-77
2023/04/24 12:22:06;;;;;;;;;3.00;3.00;;;;;27.70;34.69;100901.03;5052819;27;46143;-77
2023/04/24 12:24:31;;;;;;;;;5.33;4.00;;;;;27.71;35.31;100908.19;5053097;28;46098;-77
2023/04/24 12:26:57;;;;;;;;;4.00;1.67;;;;;27.69;34.70;100893.88;5053606;27;45950;-77
2023/04/24 12:29:23;;;;;;;;;3.33;3.33;;;;;27.71;35.04;100900.00;5051530;27;46246;-77
2023/04/24 12:31:51;;;;;;;;;3.00;2.00;;;;;27.71;34.67;100903.56;5059844;27;45931;-77
2023/04/24 12:34:24;;;;;;;;;3.33;2.00;;;;;27.70;35.06;100898.31;5063057;28;45789;-77
2023/04/24 12:36:50;;;;;;;;;4.00;3.00;;;;;27.72;35.34;100896.25;5061746;27;45550;-77
2023/04/24 12:39:17;;;;;;;;;3.67;3.67;;;;;27.73;34.53;100900.66;5076537;27;45545;-77
2023/04/24 12:42:08;;;;;;;;;3.33;2.00;;;;;27.73;34.52;100900.66;5062510;27;45524;-78
2023/04/24 12:44:35;;;;;;;;;4.00;4.00;;;;;27.72;34.35;100902.53;5060315;28;45618;-80
2023/04/24 12:47:01;;;;;;;;;3.33;3.33;;;;;27.73;35.08;100903.38;5062242;28;45618;-80
2023/04/24 12:49:27;;;;;;;;;4.67;3.00;;;;;27.73;34.57;100890.59;5060841;27;45726;-80
2023/04/24 12:51:53;;;;;;;;;1.67;1.67;;;;;27.77;34.42;100899.22;5060973;27;46950;-80
2023/04/24 12:54:18;;;;;;;;;4.00;3.00;;;;;27.82;34.41;100888.56;5062001;28;45594;-77
2023/04/24 12:56:43;;;;;;;;;3.00;3.00;;;;;27.85;34.58;100901.84;5061801;27;46381;-81
2023/04/24 12:59:08;;;;;;;;;3.00;3.00;;;;;27.89;34.29;100899.56;5061230;28;45507;-81
2023/04/24 13:01:34;;;;;;;;;3.00;2.00;;;;;27.94;34.59;100897.09;5061384;28;51041;-81
2023/04/24 13:03:59;;;;;;;;;2.33;2.00;;;;;27.98;34.40;100892.94;5062193;27;45451;-81
2023/04/24 13:06:26;;;;;;;;;3.00;3.00;;;;;28.01;34.61;100895.28;5061393;28;45527;-81
2023/04/24 13:08:51;;;;;;;;;2.00;2.00;;;;;28.05;34.87;100901.19;5061165;27;45512;-78
2023/04/24 13:11:17;;;;;;;;;2.33;2.33;;;;;28.06;34.99;100893.81;5060750;27;46249;-81
2023/04/24 13:13:42;;;;;;;;;3.00;3.00;;;;;28.13;34.69;100892.84;5061559;27;50295;-78
2023/04/24 13:16:07;;;;;;;;;3.00;3.00;;;;;28.14;34.62;100878.19;5062375;27;45515;-77
2023/04/24 13:18:32;;;;;;;;;3.00;2.00;;;;;28.18;34.58;100883.22;5053397;27;45730;-77
2023/04/24 13:20:58;;;;;;;;;3.00;2.00;;;;;28.17;34.72;100882.41;5053706;27;52302;-76
2023/04/24 13:23:23;;;;;;;;;4.00;4.00;;;;;28.19;34.25;100890.41;5052637;27;46842;-76
2023/04/24 13:25:49;;;;;;;;;2.00;2.00;;;;;28.21;34.50;100891.03;5047131;27;46254;-76
2023/04/24 13:28:14;;;;;;;;;4.00;2.33;;;;;28.22;34.45;100887.25;5052182;27;46903;-76
2023/04/24 13:30:39;;;;;;;;;2.00;2.00;;;;;28.24;34.42;100890.66;5054989;27;46918;-76
2023/04/24 13:33:05;;;;;;;;;3.00;2.67;;;;;28.25;34.52;100881.44;5056280;27;46711;-77
2023/04/24 13:35:30;;;;;;;;;2.67;2.67;;;;;28.26;34.75;100886.72;5054062;28;45469;-77
2023/04/24 13:37:56;;;;;;;;;3.67;2.00;;;;;28.27;34.33;100890.28;5052643;27;45866;-77
2023/04/24 13:40:21;;;;;;;;;3.67;3.67;;;;;28.28;34.13;100886.50;5051986;27;54441;-77
2023/04/24 13:42:46;;;;;;;;;5.00;3.00;;;;;28.28;34.84;100886.50;5051401;28;46573;-76
2023/04/24 13:45:12;;;;;;;;;3.00;3.00;;;;;28.28;34.16;100890.06;5053177;27;45616;-77
2023/04/24 13:47:40;;;;;;;;;3.00;3.00;;;;;28.28;34.55;100878.31;5052636;27;46394;-78
2023/04/24 13:50:07;;;;;;;;;3.00;1.00;;;;;28.30;34.55;100886.28;5052022;27;46376;-77
2023/04/24 13:52:32;;;;;;;;;1.67;1.67;;;;;28.27;34.51;100885.66;5052067;27;45498;-79
2023/04/24 13:54:57;;;;;;;;;1.00;1.00;;;;;28.26;34.62;100896.78;5055855;27;45554;-78
2023/04/24 13:57:23;;;;;;;;;1.00;1.00;;;;;28.23;33.94;100883.47;5060158;27;45664;-78
2023/04/24 13:59:48;;;;;;;;;1.67;1.67;;;;;28.22;34.37;100889.97;5060689;27;46150;-78
2023/04/24 14:02:13;;;;;;;;;1.33;1.33;;;;;28.23;34.63;100878.03;5061196;27;47054;-78
2023/04/24 14:04:39;;;;;;;;;1.00;1.00;;;;;28.21;34.10;100861.88;5066247;27;45718;-78
2023/04/24 14:07:04;;;;;;;;;4.00;2.67;;;;;28.24;34.82;100874.28;5068864;28;48968;-78
2023/04/24 14:09:29;;;;;;;;;2.67;2.67;;;;;28.23;34.13;100870.69;5069447;28;48614;-79
2023/04/24 14:11:54;;;;;;;;;2.33;2.33;;;;;28.20;34.40;100868.34;5062399;28;56237;-79
2023/04/24 14:14:20;;;;;;;;;1.67;1.67;;;;;28.18;34.27;100873.16;5069170;27;45649;-79
2023/04/24 14:16:45;;;;;;;;;3.00;3.00;;;;;28.17;34.32;100865.19;5068105;27;45343;-77
2023/04/24 14:19:10;;;;;;;;;1.67;1.67;;;;;28.20;34.48;100862.06;5066440;27;45564;-80
2023/04/24 14:21:36;;;;;;;;;4.00;2.33;;;;;28.23;34.01;100861.66;5076786;27;54838;-78
2023/04/24 14:24:01;;;;;;;;;3.33;3.33;;;;;28.30;35.00;100865.31;5075446;27;52977;-78
2023/04/24 14:26:26;;;;;;;;;4.00;2.00;;;;;28.40;34.33;100862.22;5053411;27;45884;-78
2023/04/24 14:28:52;;;;;;;;;4.00;4.00;;;;;28.50;34.12;100868.22;5058374;27;45797;-78
2023/04/24 14:31:18;;;;;;;;;1.00;1.00;;;;;28.61;34.62;100865.97;5059519;27;45882;-78
2023/04/24 14:33:43;;;;;;;;;2.67;2.67;;;;;28.67;34.71;100874.19;5058584;28;45477;-78
2023/04/24 14:36:08;;;;;;;;;3.00;2.00;;;;;28.74;33.76;100866.06;5060016;27;46126;-78
2023/04/24 14:38:34;;;;;;;;;1.67;1.67;;;;;28.77;34.26;100878.47;5060786;27;46709;-77
2023/04/24 14:41:01;;;;;;;;;3.00;3.00;;;;;28.79;34.32;100876.34;5056839;27;46300;-80
2023/04/24 14:43:26;;;;;;;;;2.00;1.67;;;;;28.82;34.40;100875.09;5060574;28;46149;-80
2023/04/24 14:45:51;;;;;;;;;2.00;2.00;;;;;28.83;33.76;100874.06;5058915;28;46385;-80
2023/04/24 14:48:17;;;;;;;;;1.00;1.00;;;;;28.83;33.93;100864.00;5059202;27;46599;-81
2023/04/24 14:50:42;;;;;;;;;2.00;2.00;;;;;28.85;34.57;100861.06;5059534;27;45952;-80
2023/04/24 14:53:08;;;;;;;;;2.33;2.33;;;;;28.90;33.92;100858.59;5058184;28;46917;-80
2023/04/24 14:55:35;;;;;;;;;2.00;2.00;;;;;28.95;33.90;100860.69;5060115;27;45526;-79
2023/04/24 14:58:01;;;;;;;;;3.00;2.00;;;;;28.98;34.07;100847.47;5059575;28;47579;-79
2023/04/24 15:00:26;;;;;;;;;1.00;1.00;;;;;29.02;34.02;100848.75;5059011;27;45501;-79
2023/04/24 15:02:52;;;;;;;;;1.00;1.00;;;;;29.07;33.93;100859.09;5058050;28;45999;-78
2023/04/24 15:05:17;;;;;;;;;1.33;1.33;;;;;29.11;33.85;100843.13;5060410;27;46790;-78
2023/04/24 15:07:43;;;;;;;;;2.00;2.00;;;;;29.17;34.34;100848.63;5059228;27;45800;-83
2023/04/24 15:10:09;;;;;;;;;2.00;2.00;;;;;29.22;33.90;100847.16;5058425;28;46963;-79
2023/04/24 15:12:34;;;;;;;;;1.00;1.00;;;;;29.24;33.69;100840.44;5058216;27;45468;-81
2023/04/24 15:15:00;;;;;;;;;2.67;1.33;;;;;29.27;34.11;100845.50;5059732;28;45513;-80
2023/04/24 15:17:26;;;;;;;;;1.00;1.00;;;;;29.30;34.16;100839.63;5051904;27;45548;-77
2023/04/24 15:19:51;;;;;;;;;1.33;1.00;;;;;29.30;34.04;100830.59;5051548;27;45564;-80
2023/04/24 15:22:16;;;;;;;;;2.00;2.00;;;;;29.33;33.79;100832.91;5052967;27;45470;-80
2023/04/24 15:24:42;;;;;;;;;3.67;2.00;;;;;29.37;33.82;100831.44;5051605;27;45730;-78
2023/04/24 15:27:10;;;;;;;;;6.00;1.33;;;;;29.38;33.62;100833.13;5049770;27;46345;-77
2023/04/24 15:29:35;;;;;;;;;5.00;3.00;;;;;29.35;33.95;100825.34;5048918;27;45676;-77
2023/04/24 15:32:01;;;;;;;;;2.00;2.00;;;;;29.26;33.21;100821.94;5052390;27;47094;-77
2023/04/24 15:34:26;;;;;;;;;1.33;1.33;;;;;29.18;33.45;100828.44;5052614;27;45407;-77
2023/04/24 15:36:52;;;;;;;;;1.00;1.00;;;;;29.08;33.72;100814.31;5053889;27;46242;-77
2023/04/24 15:39:17;;;;;;;;;2.00;2.00;;;;;28.98;33.38;100817.41;5054538;28;51129;-77
2023/04/24 15:41:42;;;;;;;;;3.00;3.00;;;;;28.91;33.18;100816.56;5054915;27;45428;-77
2023/04/24 15:44:08;;;;;;;;;2.00;2.00;;;;;28.81;33.52;100811.44;5053959;28;57430;-77
2023/04/24 15:46:35;;;;;;;;;2.00;2.00;;;;;28.71;32.78;100814.56;5053884;27;46539;-77
2023/04/24 15:49:00;;;;;;;;;1.67;1.33;;;;;28.62;32.98;100815.75;5054261;28;45854;-77
2023/04/24 15:51:26;;;;;;;;;3.00;1.33;;;;;28.56;32.63;100817.41;5054059;27;45514;-76
2023/04/24 15:53:51;;;;;;;;;2.67;2.00;;;;;28.49;32.64;100819.25;5065833;28;45548;-76
2023/04/24 15:56:17;;;;;;;;;2.00;2.00;;;;;28.44;33.29;100817.13;5073977;27;45980;-76
2023/04/24 15:58:42;;;;;;;;;1.00;1.00;;;;;28.38;32.73;100815.19;5070355;28;45527;-76
2023/04/24 16:01:08;;;;;;;;;2.00;2.00;;;;;28.32;33.28;100818.72;5072691;27;45615;-77
2023/04/24 16:03:33;;;;;;;;;1.00;1.00;;;;;28.25;32.58;100827.69;5063876;28;45794;-76
2023/04/24 16:05:58;;;;;;;;;2.00;2.00;;;;;28.21;32.57;100841.91;5064779;28;46110;-76
2023/04/24 16:08:23;;;;;;;;;4.00;2.00;;;;;28.15;32.96;100859.91;5070493;28;52382;-78
2023/04/24 16:10:49;;;;;;;;;2.00;2.00;;;;;28.12;32.65;100847.50;5072240;27;45452;-77
2023/04/24 16:13:17;;;;;;;;;3.00;3.00;;;;;28.10;32.81;100829.66;5068471;28;45620;-77
2023/04/24 16:15:42;;;;;;;;;3.00;3.00;;;;;28.09;33.28;100825.25;5066061;28;46179;-77
2023/04/24 16:18:08;;;;;;;;;3.33;3.33;;;;;28.10;33.01;100819.59;5062469;27;46197;-76
2023/04/24 16:20:33;;;;;;;;;2.00;2.00;;;;;28.13;32.97;100821.91;5086776;27;48883;-76
2023/04/24 16:22:59;;;;;;;;;2.00;2.00;;;;;28.17;32.78;100818.78;5072895;27;45372;-76
2023/04/24 16:25:25;;;;;;;;;2.00;2.00;;;;;28.18;32.63;100817.75;5067223;28;46892;-76
2023/04/24 16:27:51;;;;;;;;;2.00;2.00;;;;;28.20;33.22;100816.50;5069562;27;45908;-76
2023/04/24 16:30:17;;;;;;;;;2.00;2.00;;;;;28.20;33.11;100819.22;5072860;27;45584;-77
2023/04/24 16:32:42;;;;;;;;;2.00;2.00;;;;;28.21;32.76;100814.63;5068280;28;46152;-76
2023/04/24 16:35:08;;;;;;;;;2.00;2.00;;;;;28.20;33.11;100819.22;5070629;28;56399;-77
2023/04/24 16:37:33;;;;;;;;;2.00;2.00;;;;;28.21;32.51;100818.22;5072789;28;45567;-76
2023/04/24 16:39:59;;;;;;;;;2.67;1.00;;;;;28.21;32.48;100810.03;5074567;27;45410;-75
2023/04/24 16:42:25;;;;;;;;;3.00;3.00;;;;;28.21;32.76;100806.44;5068491;27;45595;-75
2023/04/24 16:44:50;;;;;;;;;2.00;2.00;;;;;28.20;32.47;100802.84;5070181;28;46416;-76
2023/04/24 16:47:16;;;;;;;;;4.33;3.00;;;;;28.19;32.64;100803.91;5069662;27;45884;-76
2023/04/24 16:49:41;;;;;;;;;2.00;2.00;;;;;28.21;32.83;100806.44;5074141;27;45516;-76
2023/04/24 16:52:07;;;;;;;;;1.00;1.00;;;;;28.21;32.91;100803.72;5067659;27;45490;-77
2023/04/24 16:54:35;;;;;;;;;1.67;1.67;;;;;28.21;33.09;100811.91;5071814;27;46906;-75
2023/04/24 16:57:02;;;;;;;;;1.33;1.33;;;;;28.21;32.98;100806.44;5068331;27;45520;-77
2023/04/24 16:59:28;;;;;;;;;1.00;1.00;;;;;28.18;32.43;100801.38;5070837;28;45507;-76
2023/04/24 17:01:53;;;;;;;;;1.00;1.00;;;;;28.18;33.07;100806.81;5070096;27;45598;-76
2023/04/24 17:04:19;;;;;;;;;2.00;2.00;;;;;28.16;33.11;100809.78;5060737;28;46420;-74
2023/04/24 17:06:44;;;;;;;;;1.00;1.00;;;;;28.13;33.06;100807.44;5071667;27;45458;-74
2023/04/24 17:09:12;;;;;;;;;3.00;3.00;;;;;28.13;32.48;100804.72;5072670;27;45364;-78
2023/04/24 17:11:37;;;;;;;;;2.33;2.33;;;;;28.10;32.42;100805.94;5069105;28;47014;-78
2023/04/24 17:14:03;;;;;;;;;4.00;2.00;;;;;28.10;32.59;100808.69;5066800;27;45749;-76
2023/04/24 17:16:28;;;;;;;;;2.00;2.00;;;;;28.10;32.56;100808.69;5057576;27;47377;-75
2023/04/24 17:18:54;;;;;;;;;3.67;3.33;;;;;28.12;32.99;100800.31;5057564;28;45739;-75
2023/04/24 17:21:19;;;;;;;;;2.00;1.33;;;;;28.12;32.99;100806.59;5062985;27;45549;-75
2023/04/24 17:23:44;;;;;;;;;3.00;2.33;;;;;28.11;32.53;100804.03;5058705;27;47170;-75
2023/04/24 17:26:11;;;;;;;;;4.00;3.00;;;;;28.09;32.53;100803.41;5053764;28;53018;-75
2023/04/24 17:28:36;;;;;;;;;3.00;3.00;;;;;28.04;32.58;100798.56;5055735;28;45669;-76
2023/04/24 17:31:02;;;;;;;;;2.00;2.00;;;;;28.02;32.95;100800.63;5062203;27;46937;-76
2023/04/24 17:33:29;;;;;;;;;3.67;2.00;;;;;27.99;32.72;100795.56;5072198;28;46992;-76
2023/04/24 17:35:54;;;;;;;;;2.67;2.67;;;;;27.98;33.06;100791.16;5071807;27;45548;-75
2023/04/24 17:38:20;;;;;;;;;2.00;2.00;;;;;27.98;32.70;100796.59;5072035;27;45654;-75
2023/04/24 17:40:46;;;;;;;;;3.00;3.00;;;;;27.99;32.71;100799.16;5073072;27;45495;-75
2023/04/24 17:43:16;;;;;;;;;2.00;2.00;;;;;28.00;33.16;100802.72;5069782;27;46185;-75
2023/04/24 17:45:44;;;;;;;;;2.00;2.00;;;;;27.99;32.77;100799.16;5070613;27;45741;-81
2023/04/24 17:48:10;;;;;;;;;4.33;3.00;;;;;28.02;32.24;100798.75;5072188;28;45700;-77
2023/04/24 17:50:35;;;;;;;;;5.33;4.00;;;;;28.02;32.22;100798.75;5073682;27;45379;-75
2023/04/24 17:53:00;;;;;;;;;2.00;2.00;;;;;28.02;32.25;100800.63;5068943;28;55063;-76
2023/04/24 17:55:26;;;;;;;;;3.00;3.00;;;;;28.02;32.95;100796.03;5069372;28;56681;-76
2023/04/24 17:57:51;;;;;;;;;2.33;2.00;;;;;28.01;32.44;100793.50;5067279;27;45427;-76
2023/04/24 18:00:17;;;;;;;;;3.33;2.00;;;;;28.02;32.59;100792.44;5064474;28;45445;-76
2023/04/24 18:02:42;;;;;;;;;3.67;3.00;;;;;28.01;32.63;100788.03;5059979;28;47261;-74
2023/04/24 18:05:07;;;;;;;;;3.67;3.00;;;;;28.02;33.02;100797.91;5065760;27;45944;-75
2023/04/24 18:07:33;;;;;;;;;3.00;3.00;;;;;28.02;32.22;100797.91;5065439;27;45673;-75
2023/04/24 18:09:58;;;;;;;;;2.00;2.00;;;;;27.99;32.86;100799.16;5064319;27;45525;-75
2023/04/24 18:12:23;;;;;;;;;3.33;2.00;;;;;27.98;32.30;100794.75;5063772;27;61801;-72
2023/04/24 18:14:49;;;;;;;;;3.33;2.67;;;;;27.95;32.25;100789.66;5064770;27;45708;-72
2023/04/24 18:17:14;;;;;;;;;2.00;2.00;;;;;27.91;32.86;100791.09;5064346;27;45728;-72
2023/04/24 18:19:39;;;;;;;;;2.00;2.00;;;;;27.87;32.15;100787.06;5064350;27;45393;-72
2023/04/24 18:22:05;;;;;;;;;2.00;2.00;;;;;27.86;32.31;100788.13;5067194;27;45923;-72
2023/04/24 18:24:30;;;;;;;;;2.67;2.67;;;;;27.82;32.19;100779.50;5063873;27;45425;-72
2023/04/24 18:26:56;;;;;;;;;4.00;2.67;;;;;27.78;32.22;100780.09;5065342;27;45437;-72
2023/04/24 18:29:21;;;;;;;;;2.33;2.33;;;;;27.75;32.21;100781.34;5064001;27;45457;-72
2023/04/24 18:31:47;;;;;;;;;2.00;2.00;;;;;27.73;32.84;100781.53;5063583;28;46086;-72
2023/04/24 18:34:12;;;;;;;;;4.00;2.00;;;;;27.71;32.45;100791.78;5062015;27;45915;-75
2023/04/24 18:36:37;;;;;;;;;3.33;2.33;;;;;27.69;32.24;100785.69;5064281;27;45584;-76